createdAt,value
2019-02-09T00:00:56.165Z,100130.88
2019-02-09T00:03:27.320Z,100126.05
2019-02-09T00:05:58.598Z,100109.88
2019-02-09T00:08:29.824Z,100111.98
2019-02-09T00:11:00.974Z,100111.00
2019-02-09T00:13:32.278Z,100109.70
2019-02-09T00:16:03.501Z,100100.98
2019-02-09T00:18:34.791Z,100097.53
2019-02-09T00:21:06.413Z,100093.22
2019-02-09T00:23:37.583Z,100081.05
2019-02-09T00:26:08.750Z,100068.86
2019-02-09T00:28:39.882Z,100064.06
2019-02-09T00:31:11.075Z,100052.70
2019-02-09T00:33:42.184Z,100037.02
2019-02-09T00:36:13.481Z,100028.27
2019-02-09T00:38:44.696Z,100021.33
2019-02-09T00:41:15.846Z,100026.95
2019-02-09T00:43:46.969Z,100009.56
2019-02-09T00:46:18.138Z,100008.26
2019-02-09T00:48:49.367Z,100000.41
2019-02-09T00:51:20.528Z,100001.80
2019-02-09T00:53:51.765Z,99996.56
2019-02-09T00:56:22.987Z,99997.95
2019-02-09T00:58:54.152Z,99995.77
2019-02-09T01:01:25.296Z,99975.25
2019-02-09T01:03:56.518Z,99971.00
2019-02-09T01:06:27.645Z,99972.78
2019-02-09T01:08:58.818Z,99972.86
2019-02-09T01:11:29.987Z,99974.16
2019-02-09T01:14:01.152Z,99972.13
2019-02-09T01:16:32.320Z,99959.05
2019-02-09T01:19:03.939Z,99956.91
2019-02-09T01:21:35.169Z,99957.02
2019-02-09T01:24:06.335Z,99949.64
2019-02-09T01:26:37.499Z,99945.32
2019-02-09T01:29:08.614Z,99943.25
2019-02-09T01:31:39.806Z,99933.22
2019-02-09T01:34:11.062Z,99937.14
2019-02-09T01:36:42.385Z,99946.37
2019-02-09T01:39:13.475Z,99945.06
2019-02-09T01:41:44.647Z,99951.66
2019-02-09T01:44:15.847Z,99952.97
2019-02-09T01:46:47.016Z,99943.42
2019-02-09T01:49:18.213Z,99936.55
2019-02-09T01:51:49.354Z,99934.48
2019-02-09T01:54:20.605Z,99925.83
2019-02-09T01:56:51.788Z,99911.92
2019-02-09T01:59:22.968Z,99904.58
2019-02-09T02:01:54.129Z,99900.15
2019-02-09T02:04:25.318Z,99893.28
2019-02-09T02:06:56.501Z,99893.68
2019-02-09T02:09:27.619Z,99892.44
2019-02-09T02:11:58.818Z,99889.36
2019-02-09T02:14:29.972Z,99882.48
2019-02-09T02:17:01.141Z,99877.25
2019-02-09T02:19:32.298Z,99875.11
2019-02-09T02:22:03.421Z,99865.09
2019-02-09T02:24:34.604Z,99845.03
2019-02-09T02:27:05.784Z,99839.80
2019-02-09T02:29:37.014Z,99834.10
2019-02-09T02:32:08.115Z,99828.03
2019-02-09T02:34:39.473Z,99823.14
2019-02-09T02:37:10.685Z,99813.58
2019-02-09T02:39:41.844Z,99813.19
2019-02-09T02:42:13.032Z,99808.86
2019-02-09T02:44:44.266Z,99815.93
2019-02-09T02:47:15.474Z,99819.79
2019-02-09T02:49:46.663Z,99826.73
2019-02-09T02:52:17.821Z,99826.73
2019-02-09T02:54:48.971Z,99824.11
2019-02-09T02:57:20.744Z,99822.00
2019-02-09T02:59:51.850Z,99823.84
2019-02-09T03:02:23.037Z,99818.61
2019-02-09T03:04:54.172Z,99807.81
2019-02-09T03:07:25.333Z,99806.10
2019-02-09T03:09:56.600Z,99797.02
2019-02-09T03:12:27.768Z,99790.54
2019-02-09T03:14:58.986Z,99788.30
2019-02-09T03:17:30.144Z,99787.45
2019-02-09T03:20:01.296Z,99787.92
2019-02-09T03:22:33.484Z,99784.50
2019-02-09T03:25:05.323Z,99787.69
2019-02-09T03:27:36.492Z,99782.02
2019-02-09T03:30:08.865Z,99775.55
2019-02-09T03:32:40.073Z,99783.99
2019-02-09T03:35:11.396Z,99783.99
2019-02-09T03:37:42.759Z,99767.45
2019-02-09T03:40:16.012Z,99768.77
2019-02-09T03:42:48.128Z,99771.87
2019-02-09T03:45:21.662Z,99767.62
2019-02-09T03:47:53.069Z,99762.45
2019-02-09T03:50:25.304Z,99753.35
2019-02-09T03:52:56.609Z,99747.31
2019-02-09T03:55:27.905Z,99747.84
2019-02-09T03:57:59.098Z,99751.83
2019-02-09T04:00:31.235Z,99741.87
2019-02-09T04:03:02.995Z,99739.38
2019-02-09T04:05:34.166Z,99738.06
2019-02-09T04:08:05.570Z,99731.93
2019-02-09T04:10:36.806Z,99738.91
2019-02-09T04:13:08.025Z,99729.25
2019-02-09T04:15:39.277Z,99723.95
2019-02-09T04:18:10.441Z,99731.46
2019-02-09T04:20:41.594Z,99731.46
2019-02-09T04:23:12.695Z,99732.77
2019-02-09T04:25:43.882Z,99732.70
2019-02-09T04:28:15.022Z,99718.25
2019-02-09T04:30:46.191Z,99732.20
2019-02-09T04:33:17.411Z,99724.80
2019-02-09T04:35:48.534Z,99733.52
2019-02-09T04:38:19.721Z,99733.61
2019-02-09T04:40:51.013Z,99734.83
2019-02-09T04:43:22.177Z,99732.20
2019-02-09T04:45:53.347Z,99724.02
2019-02-09T04:48:24.599Z,99730.56
2019-02-09T04:50:55.795Z,99737.09
2019-02-09T04:53:27.002Z,99730.16
2019-02-09T04:55:58.199Z,99737.44
2019-02-09T04:58:29.491Z,99737.38
2019-02-09T05:01:00.842Z,99723.33
2019-02-09T05:03:32.094Z,99709.78
2019-02-09T05:06:03.235Z,99721.84
2019-02-09T05:08:34.394Z,99726.50
2019-02-09T05:11:05.568Z,99716.45
2019-02-09T05:13:36.888Z,99726.37
2019-02-09T05:16:08.083Z,99729.77
2019-02-09T05:18:39.284Z,99731.34
2019-02-09T05:21:10.518Z,99715.06
2019-02-09T05:23:41.648Z,99722.81
2019-02-09T05:26:12.887Z,99729.09
2019-02-09T05:28:44.181Z,99723.36
2019-02-09T05:31:22.924Z,99721.36
2019-02-09T05:33:48.204Z,99716.34
2019-02-09T05:36:19.386Z,99715.24
2019-02-09T05:38:50.572Z,99728.52
2019-02-09T05:41:21.732Z,99717.44
2019-02-09T05:43:52.969Z,99710.27
2019-02-09T05:46:24.077Z,99713.62
2019-02-09T05:48:55.420Z,99714.73
2019-02-09T05:51:26.897Z,99723.30
2019-02-09T05:53:58.065Z,99707.83
2019-02-09T05:56:29.253Z,99712.09
2019-02-09T05:59:00.743Z,99710.84
2019-02-09T06:01:32.727Z,99717.45
2019-02-09T06:04:03.951Z,99711.75
2019-02-09T06:06:35.216Z,99714.77
2019-02-09T06:09:08.287Z,99733.13
2019-02-09T06:11:39.457Z,99728.80
2019-02-09T06:14:10.890Z,99733.63
2019-02-09T06:16:42.122Z,99741.47
2019-02-09T06:19:13.290Z,99743.17
2019-02-09T06:21:44.504Z,99752.32
2019-02-09T06:24:15.764Z,99760.66
2019-02-09T06:26:47.194Z,99768.00
2019-02-09T06:29:18.488Z,99756.17
2019-02-09T06:31:49.641Z,99761.80
2019-02-09T06:34:20.983Z,99747.36
2019-02-09T06:36:52.189Z,99761.80
2019-02-09T06:39:23.325Z,99759.19
2019-02-09T06:41:54.671Z,99762.20
2019-02-09T06:44:25.797Z,99761.00
2019-02-09T06:46:57.047Z,99765.59
2019-02-09T06:49:28.236Z,99760.77
2019-02-09T06:51:59.432Z,99764.22
2019-02-09T06:54:30.684Z,99765.92
2019-02-09T06:57:01.984Z,99773.77
2019-02-09T06:59:33.173Z,99760.70
2019-02-09T07:02:04.645Z,99774.56
2019-02-09T07:04:35.862Z,99775.97
2019-02-09T07:07:07.118Z,99786.89
2019-02-09T07:09:38.311Z,99783.04
2019-02-09T07:12:09.585Z,99791.52
2019-02-09T07:14:40.769Z,99787.27
2019-02-09T07:17:12.059Z,99785.70
2019-02-09T07:19:43.318Z,99784.12
2019-02-09T07:22:14.488Z,99789.86
2019-02-09T07:24:45.769Z,99788.11
2019-02-09T07:27:17.042Z,99781.64
2019-02-09T07:29:48.440Z,99792.27
2019-02-09T07:32:19.698Z,99789.32
2019-02-09T07:34:51.417Z,99784.73
2019-02-09T07:37:22.675Z,99770.89
2019-02-09T07:39:53.866Z,99774.14
2019-02-09T07:42:25.268Z,99795.62
2019-02-09T07:44:56.517Z,99799.34
2019-02-09T07:47:27.735Z,99805.54
2019-02-09T07:49:59.064Z,99810.97
2019-02-09T07:52:30.500Z,99812.84
2019-02-09T07:55:01.702Z,99809.39
2019-02-09T07:57:33.050Z,99817.87
2019-02-09T08:00:04.639Z,99816.70
2019-02-09T08:02:35.946Z,99811.63
2019-02-09T08:05:07.439Z,99802.61
2019-02-09T08:07:38.601Z,99797.64
2019-02-09T08:10:12.832Z,99792.59
2019-02-09T08:12:44.142Z,99791.85
2019-02-09T08:15:18.381Z,99800.73
2019-02-09T08:17:49.732Z,99798.52
2019-02-09T08:20:22.037Z,99801.77
2019-02-09T08:22:53.748Z,99806.60
2019-02-09T08:25:26.414Z,99809.75
2019-02-09T08:27:58.554Z,99808.50
2019-02-09T08:30:32.417Z,99814.36
2019-02-09T08:33:03.679Z,99823.69
2019-02-09T08:35:34.867Z,99827.34
2019-02-09T08:38:07.227Z,99822.29
2019-02-09T08:40:38.400Z,99837.31
2019-02-09T08:43:09.569Z,99841.87
2019-02-09T08:45:40.800Z,99838.13
2019-02-09T08:48:12.008Z,99832.28
2019-02-09T08:50:46.565Z,99834.21
2019-02-09T08:53:17.784Z,99841.05
2019-02-09T08:55:48.908Z,99844.75
2019-02-09T08:58:20.355Z,99846.80
2019-02-09T09:00:51.710Z,99847.09
2019-02-09T09:03:22.893Z,99859.68
2019-02-09T09:05:54.093Z,99862.58
2019-02-09T09:08:25.301Z,99856.20
2019-02-09T09:10:56.523Z,99859.85
2019-02-09T09:13:27.767Z,99870.48
2019-02-09T09:16:00.468Z,99871.02
2019-02-09T09:18:31.754Z,99869.52
2019-02-09T09:21:03.930Z,99869.63
2019-02-09T09:23:35.104Z,99873.78
2019-02-09T09:26:06.359Z,99884.84
2019-02-09T09:28:37.601Z,99874.07
2019-02-09T09:31:08.919Z,99876.96
2019-02-09T09:33:40.065Z,99863.16
2019-02-09T09:36:11.264Z,99866.39
2019-02-09T09:38:42.506Z,99866.51
2019-02-09T09:41:13.700Z,99872.72
2019-02-09T09:43:44.983Z,99869.05
2019-02-09T09:46:16.183Z,99886.61
2019-02-09T09:48:47.374Z,99871.69
2019-02-09T09:51:18.574Z,99879.94
2019-02-09T09:53:49.795Z,99871.47
2019-02-09T09:56:21.010Z,99874.96
2019-02-09T09:58:52.197Z,99890.55
2019-02-09T10:01:23.513Z,99894.80
2019-02-09T10:03:54.713Z,99875.33
2019-02-09T10:06:25.901Z,99881.30
2019-02-09T10:08:57.170Z,99893.36
2019-02-09T10:11:28.400Z,99886.90
2019-02-09T10:13:59.651Z,99888.41
2019-02-09T10:16:30.842Z,99904.33
2019-02-09T10:19:02.193Z,99905.72
2019-02-09T10:21:33.479Z,99910.73
2019-02-09T10:24:04.860Z,99911.38
2019-02-09T10:26:36.205Z,99903.61
2019-02-09T10:29:07.402Z,99914.81
2019-02-09T10:31:39.921Z,99903.59
2019-02-09T10:34:11.106Z,99912.08
2019-02-09T10:36:42.391Z,99921.87
2019-02-09T10:39:13.622Z,99925.09
2019-02-09T10:41:44.845Z,99915.95
2019-02-09T10:44:16.501Z,99916.16
2019-02-09T10:46:47.727Z,99915.33
2019-02-09T10:49:19.084Z,99933.78
2019-02-09T10:51:50.269Z,99966.99
2019-02-09T10:54:21.436Z,99956.73
2019-02-09T10:56:52.644Z,99934.88
2019-02-09T10:59:23.877Z,99965.34
2019-02-09T11:01:55.153Z,99951.95
2019-02-09T11:04:26.311Z,99957.34
2019-02-09T11:06:57.537Z,99933.91
2019-02-09T11:09:28.784Z,99959.95
2019-02-09T11:12:00.118Z,99959.46
2019-02-09T11:14:31.530Z,99969.44
2019-02-09T11:17:02.813Z,99976.29
2019-02-09T11:19:34.041Z,99972.99
2019-02-09T11:22:05.403Z,99950.28
2019-02-09T11:24:36.532Z,99953.92
2019-02-09T11:27:07.728Z,99949.41
2019-02-09T11:29:39.021Z,99965.12
2019-02-09T11:32:10.304Z,99963.77
2019-02-09T11:34:41.564Z,99968.55
2019-02-09T11:37:13.011Z,99972.80
2019-02-09T11:39:44.207Z,99955.18
2019-02-09T11:42:15.463Z,99972.04
2019-02-09T11:44:46.935Z,99973.57
2019-02-09T11:47:18.098Z,99987.25
2019-02-09T11:49:49.350Z,99983.02
2019-02-09T11:52:22.168Z,99986.55
2019-02-09T11:54:53.614Z,99959.12
2019-02-09T11:57:24.817Z,99967.72
2019-02-09T11:59:56.017Z,99976.20
2019-02-09T12:02:27.192Z,99978.25
2019-02-09T12:04:58.416Z,99962.00
2019-02-09T12:07:29.627Z,99974.22
2019-02-09T12:10:00.817Z,99948.97
2019-02-09T12:12:32.532Z,99959.62
2019-02-09T12:15:04.040Z,99981.75
2019-02-09T12:17:35.235Z,99941.64
2019-02-09T12:20:08.624Z,99962.55
2019-02-09T12:22:39.802Z,99966.55
2019-02-09T12:25:14.000Z,99956.69
2019-02-09T12:27:45.300Z,99971.95
2019-02-09T12:30:19.363Z,99983.36
2019-02-09T12:32:50.560Z,99994.22
2019-02-09T12:35:22.217Z,99978.69
2019-02-09T12:37:53.375Z,99947.42
2019-02-09T12:40:26.897Z,99953.89
2019-02-09T12:42:58.146Z,99948.09
2019-02-09T12:45:29.855Z,99967.19
2019-02-09T12:48:02.146Z,99954.75
2019-02-09T12:50:33.490Z,99947.41
2019-02-09T12:53:04.897Z,99941.88
2019-02-09T12:55:36.364Z,99981.07
2019-02-09T12:58:07.858Z,99949.45
2019-02-09T13:00:39.178Z,99950.62
2019-02-09T13:03:18.773Z,99954.02
2019-02-09T13:05:50.026Z,99940.74
2019-02-09T13:08:21.335Z,99957.17
2019-02-09T13:10:52.551Z,99956.80
2019-02-09T13:13:23.858Z,99940.55
2019-02-09T13:15:55.186Z,99951.78
2019-02-09T13:18:26.391Z,99943.74
2019-02-09T13:20:57.704Z,99945.30
2019-02-09T13:23:29.024Z,99949.39
2019-02-09T13:26:00.219Z,99944.54
2019-02-09T13:28:31.445Z,99939.23
2019-02-09T13:31:05.587Z,99945.23
2019-02-09T13:33:39.266Z,99933.75
2019-02-09T13:36:10.961Z,99945.50
2019-02-09T13:38:42.275Z,99938.38
2019-02-09T13:41:13.487Z,99942.55
2019-02-09T13:43:44.732Z,99951.67
2019-02-09T13:46:15.986Z,99947.64
2019-02-09T13:48:47.281Z,99943.77
2019-02-09T13:51:20.109Z,99939.83
2019-02-09T13:53:51.312Z,99949.81
2019-02-09T13:56:22.975Z,99958.02
2019-02-09T13:58:54.273Z,99978.21
2019-02-09T14:01:25.917Z,99966.64
2019-02-09T14:03:57.362Z,99972.91
2019-02-09T14:06:28.905Z,99980.66
2019-02-09T14:09:00.444Z,99982.61
2019-02-09T14:11:32.377Z,99969.77
2019-02-09T14:14:03.770Z,99964.92
2019-02-09T14:16:38.719Z,99974.54
2019-02-09T14:19:10.174Z,99974.91
2019-02-09T14:21:41.540Z,99975.34
2019-02-09T14:24:12.822Z,99974.27
2019-02-09T14:26:44.120Z,99968.05
2019-02-09T14:29:15.325Z,99980.75
2019-02-09T14:31:46.549Z,99987.14
2019-02-09T14:34:17.815Z,99982.16
2019-02-09T14:36:49.175Z,99993.08
2019-02-09T14:39:20.341Z,99984.09
2019-02-09T14:41:51.791Z,99999.73
2019-02-09T14:44:23.044Z,99989.62
2019-02-09T14:46:54.298Z,99986.89
2019-02-09T14:49:25.682Z,99997.64
2019-02-09T14:51:57.001Z,99990.50
2019-02-09T14:54:28.433Z,99992.58
2019-02-09T14:56:59.750Z,99986.01
2019-02-09T14:59:31.471Z,99986.42
2019-02-09T15:02:03.994Z,99992.89
2019-02-09T15:04:35.521Z,99980.46
2019-02-09T15:07:06.856Z,99990.21
2019-02-09T15:09:39.145Z,99992.89
2019-02-09T15:12:10.518Z,99988.17
2019-02-09T15:14:41.741Z,100015.23
2019-02-09T15:17:13.010Z,100006.86
2019-02-09T15:19:44.286Z,100008.97
2019-02-09T15:22:15.528Z,100011.25
2019-02-09T15:24:46.726Z,100000.78
2019-02-09T15:27:19.173Z,100004.72
2019-02-09T15:29:50.385Z,100007.61
2019-02-09T15:32:21.728Z,99982.13
2019-02-09T15:34:52.887Z,99981.62
2019-02-09T15:37:24.259Z,99975.46
2019-02-09T15:39:55.539Z,99981.38
2019-02-09T15:42:26.850Z,99984.78
2019-02-09T15:44:59.165Z,99984.27
2019-02-09T15:47:31.495Z,99972.80
2019-02-09T15:50:02.803Z,99979.23
2019-02-09T15:52:34.022Z,99981.34
2019-02-09T15:55:05.626Z,99981.20
2019-02-09T15:57:36.794Z,99980.33
2019-02-09T16:00:14.197Z,99967.00
2019-02-09T16:02:46.248Z,99965.98
2019-02-09T16:05:19.171Z,99972.97
2019-02-09T16:07:50.538Z,99975.48
2019-02-09T16:10:22.133Z,99973.22
2019-02-09T16:12:53.765Z,99974.53
2019-02-09T16:15:26.703Z,99984.08
2019-02-09T16:17:58.185Z,99970.89
2019-02-09T16:20:29.786Z,99972.97
2019-02-09T16:23:01.499Z,99987.42
2019-02-09T16:25:33.020Z,99997.88
2019-02-09T16:28:04.566Z,100004.94
2019-02-09T16:30:37.768Z,100018.02
2019-02-09T16:33:09.396Z,100095.72
2019-02-09T16:35:41.642Z,100140.62
2019-02-09T16:38:13.313Z,100167.27
2019-02-09T16:40:44.703Z,100102.84
2019-02-09T16:43:16.216Z,100098.13
2019-02-09T16:45:47.816Z,100101.61
2019-02-09T16:48:19.391Z,100093.02
2019-02-09T16:50:51.840Z,100087.58
2019-02-09T16:53:23.674Z,100105.11
2019-02-09T16:55:55.203Z,100090.73
2019-02-09T16:58:26.658Z,100081.58
2019-02-09T17:00:58.387Z,100085.02
2019-02-09T17:03:30.057Z,100089.92
2019-02-09T17:06:01.576Z,100085.45
2019-02-09T17:08:33.032Z,100089.30
2019-02-09T17:11:04.416Z,100094.53
2019-02-09T17:13:37.109Z,100095.41
2019-02-09T17:16:08.367Z,100104.23
2019-02-09T17:18:39.585Z,100110.04
2019-02-09T17:21:10.847Z,100094.03
2019-02-09T17:23:42.099Z,100093.78
2019-02-09T17:26:14.974Z,100101.37
2019-02-09T17:28:46.279Z,100102.89
2019-02-09T17:31:17.590Z,100097.73
2019-02-09T17:33:48.777Z,100090.41
2019-02-09T17:36:19.945Z,100097.59
2019-02-09T17:38:51.159Z,100096.36
2019-02-09T17:41:22.383Z,100101.27
2019-02-09T17:43:53.598Z,100110.49
2019-02-09T17:46:24.812Z,100111.47
2019-02-09T17:48:56.285Z,100106.31
2019-02-09T17:51:27.990Z,100112.13
2019-02-09T17:53:59.449Z,100116.16
2019-02-09T17:56:30.882Z,100121.06
2019-02-09T17:59:02.471Z,100125.06
2019-02-09T18:01:33.710Z,100130.36
2019-02-09T18:04:05.177Z,100131.81
2019-02-09T18:06:36.488Z,100146.78
2019-02-09T18:09:08.569Z,100155.22
2019-02-09T18:11:39.732Z,100175.90
2019-02-09T18:14:10.942Z,100177.13
2019-02-09T18:16:42.289Z,100177.02
2019-02-09T18:19:13.513Z,100187.02
2019-02-09T18:21:44.697Z,100177.39
2019-02-09T18:24:15.874Z,100175.24
2019-02-09T18:26:47.072Z,100178.27
2019-02-09T18:29:18.294Z,100168.23
2019-02-09T18:31:49.449Z,100159.07
2019-02-09T18:34:20.698Z,100187.92
2019-02-09T18:36:51.989Z,100160.38
2019-02-09T18:39:23.119Z,100163.47
2019-02-09T18:41:54.287Z,100164.30
2019-02-09T18:44:25.448Z,100181.20
2019-02-09T18:46:56.617Z,100174.19
2019-02-09T18:49:31.619Z,100173.93
2019-02-09T18:52:03.263Z,100182.61
2019-02-09T18:54:34.470Z,100175.02
2019-02-09T18:57:05.704Z,100187.16
2019-02-09T18:59:36.967Z,100192.71
2019-02-09T19:02:09.895Z,100183.81
2019-02-09T19:04:41.122Z,100209.81
2019-02-09T19:07:12.373Z,100189.94
2019-02-09T19:09:43.589Z,100195.67
2019-02-09T19:12:14.860Z,100195.17
2019-02-09T19:14:46.214Z,100199.84
2019-02-09T19:17:17.519Z,100202.03
2019-02-09T19:19:48.701Z,100201.48
2019-02-09T19:22:20.519Z,100202.79
2019-02-09T19:24:51.910Z,100201.88
2019-02-09T19:27:23.125Z,100215.43
2019-02-09T19:29:54.303Z,100208.89
2019-02-09T19:32:25.639Z,100212.34
2019-02-09T19:34:56.855Z,100210.05
2019-02-09T19:37:28.164Z,100216.59
2019-02-09T19:39:59.440Z,100212.59
2019-02-09T19:42:31.263Z,100206.77
2019-02-09T19:45:02.486Z,100217.66
2019-02-09T19:47:33.735Z,100215.92
2019-02-09T19:50:05.962Z,100221.16
2019-02-09T19:53:27.305Z,100213.81
2019-02-09T19:55:59.717Z,100216.83
2019-02-09T19:58:31.030Z,100218.54
2019-02-09T20:01:02.381Z,100231.62
2019-02-09T20:03:38.961Z,100232.92
2019-02-09T20:06:10.199Z,100226.82
2019-02-09T20:08:41.632Z,100229.25
2019-02-09T20:11:13.791Z,100228.84
2019-02-09T20:13:45.104Z,100238.98
2019-02-09T20:16:16.481Z,100237.17
2019-02-09T20:18:47.860Z,100239.46
2019-02-09T20:21:19.165Z,100247.50
2019-02-09T20:23:50.410Z,100250.98
2019-02-09T20:26:21.632Z,100250.59
2019-02-09T20:28:52.999Z,100250.66
2019-02-09T20:31:24.247Z,100257.79
2019-02-09T20:33:55.534Z,100251.33
2019-02-09T20:36:26.802Z,100254.02
2019-02-09T20:39:04.503Z,100256.31
2019-02-09T20:41:31.738Z,100265.14
2019-02-09T20:44:03.135Z,100270.38
2019-02-09T20:46:34.573Z,100267.69
2019-02-09T20:49:06.072Z,100273.39
2019-02-09T20:51:37.372Z,100271.69
2019-02-09T20:54:08.674Z,100267.44
2019-02-09T20:56:39.923Z,100270.53
2019-02-09T20:59:11.162Z,100268.91
2019-02-09T21:01:42.383Z,100279.05
2019-02-09T21:04:14.021Z,100274.25
2019-02-09T21:06:45.346Z,100283.05
2019-02-09T21:09:16.728Z,100278.72
2019-02-09T21:11:47.932Z,100288.90
2019-02-09T21:14:19.317Z,100282.84
2019-02-09T21:16:51.750Z,100286.44
2019-02-09T21:19:23.462Z,100292.91
2019-02-09T21:21:54.810Z,100288.06
2019-02-09T21:24:26.088Z,100290.20
2019-02-09T21:26:57.276Z,100299.29
2019-02-09T21:29:29.630Z,100298.34
2019-02-09T21:32:00.847Z,100298.66
2019-02-09T21:34:32.081Z,100292.95
2019-02-09T21:37:03.474Z,100296.38
2019-02-09T21:39:34.828Z,100295.50
2019-02-09T21:42:06.110Z,100291.89
2019-02-09T21:44:37.842Z,100290.91
2019-02-09T21:47:09.126Z,100294.00
2019-02-09T21:49:40.551Z,100291.30
2019-02-09T21:52:11.925Z,100294.75
2019-02-09T21:54:43.157Z,100299.16
2019-02-09T21:57:14.407Z,100291.81
2019-02-09T21:59:45.826Z,100294.08
2019-02-09T22:02:17.014Z,100295.50
2019-02-09T22:04:48.197Z,100291.65
2019-02-09T22:07:19.657Z,100291.25
2019-02-09T22:09:50.829Z,100294.74
2019-02-09T22:12:22.030Z,100292.20
2019-02-09T22:14:53.237Z,100288.20
2019-02-09T22:17:24.607Z,100291.65
2019-02-09T22:19:55.938Z,100285.91
2019-02-09T22:22:27.188Z,100288.05
2019-02-09T22:24:58.696Z,100292.77
2019-02-09T22:27:30.120Z,100290.07
2019-02-09T22:30:01.416Z,100296.06
2019-02-09T22:32:32.671Z,100299.80
2019-02-09T22:35:04.088Z,100294.88
2019-02-09T22:37:35.442Z,100304.87
2019-02-09T22:40:09.967Z,100305.51
2019-02-09T22:42:41.203Z,100296.20
2019-02-09T22:45:12.909Z,100292.52
2019-02-09T22:47:44.259Z,100305.00
2019-02-09T22:50:19.237Z,100314.00
2019-02-09T22:52:50.569Z,100307.70
2019-02-09T22:55:22.172Z,100307.94
2019-02-09T22:57:53.481Z,100306.44
2019-02-09T23:00:52.798Z,100304.57
2019-02-09T23:03:31.071Z,100302.67
2019-02-09T23:06:41.174Z,100305.13
2019-02-09T23:09:16.685Z,100307.54
2019-02-09T23:11:48.017Z,100309.09
2019-02-09T23:14:19.321Z,100311.14
2019-02-09T23:16:51.049Z,100313.24
2019-02-09T23:19:22.561Z,100317.00
2019-02-09T23:21:53.848Z,100325.16
2019-02-09T23:24:25.039Z,100329.47
2019-02-09T23:26:56.306Z,100328.48
2019-02-09T23:29:27.479Z,100334.93
2019-02-09T23:31:58.816Z,100333.06
2019-02-09T23:34:30.043Z,100334.25
2019-02-09T23:37:01.262Z,100332.47
2019-02-09T23:39:32.515Z,100329.69
2019-02-09T23:42:03.734Z,100332.30
2019-02-09T23:44:35.989Z,100333.92
2019-02-09T23:47:07.150Z,100330.40
2019-02-09T23:49:38.405Z,100340.85
2019-02-09T23:52:09.589Z,100338.55
2019-02-09T23:54:40.774Z,100337.16
2019-02-09T23:57:11.998Z,100339.26
2019-02-09T23:59:43.226Z,100327.42
